EGOV Airport Information

Runway Information
Runway 01 Length 5377 ft width 151 ft
Elevation 18 ft Threshold ft Heading 6
Runway 19 Length 5377 ft Width 151 ft
Elevation 35 ft Threshold 221 ft Heading 186
Runway 08 Length 2200 ft width 151 ft
Elevation 19 ft Threshold 703 ft Heading 70
Runway 26 Length 2200 ft Width 151 ft
Elevation 36 ft Threshold 401 ft Heading 250
Runway 13 Length 7513 ft width 151 ft
Elevation 30 ft Threshold ft Heading 131
Runway 31 Length 7513 ft Width 151 ft
Elevation 22 ft Threshold ft Heading 311
Airport Frequencies
Type APP Name APP Frequency 134.35 MHZ
Type ATIS Name ATIS Frequency 120.725 MHZ
Type GND Name GND Frequency 122.1 MHZ
Type RDR Name RADAR Frequency 125.225 MHZ
Type TWR Name TWR Frequency 122.1 MHZ
Airport Navaids
Type TACAN Name Valley Frequency 108400 KHZ
Airport Weather Information & NOTAM
ADDS - METARS form results

(2247 UTC 04 December 2022)
Data provider http://aviationweather.gov/metar/data/
 
METAR text: EGOV 042220Z AUTO 06011KT 9999 NCD 06/03 Q1022
Conditions at: EGOV (VALLEY RAF , GB) observed 2220 UTC 04 December 2022
Temperature: 6.0°C (43°F)
Dewpoint: 3.0°C (37°F) [RH = 81%]
Pressure (altimeter): 30.18 inches Hg (1022.0 mb)
Winds: from the ENE (60 degrees) at 13 MPH (11 knots; 5.7 m/s)
Visibility: 6 or more miles (10+ km)
Ceiling: at least 12,000 feet AGL
Clouds: sky clear below 12,000 feet AGL
Weather: no significant weather observed at this time

METAR text: EGOV 042150Z AUTO 07008KT 9999 FEW037/// 06/03 Q1022
Conditions at: EGOV (VALLEY RAF , GB) observed 2150 UTC 04 December 2022
Temperature: 6.0°C (43°F)
Dewpoint: 3.0°C (37°F) [RH = 81%]
Pressure (altimeter): 30.18 inches Hg (1022.0 mb)
Winds: from the ENE (70 degrees) at 9 MPH (8 knots; 4.1 m/s)
Visibility: 6 or more miles (10+ km)
Ceiling: at least 12,000 feet AGL
Clouds: few clouds at 3700 feet AGL
Weather: no significant weather observed at this time